Time;durP1;ratioP1;P1;durP2;ratioP2;P2;SDS_P1;SDS_P2;PMS_P1;PMS_P2;Temp;Humidity;BMP_temperature;BMP_pressure;BME280_temperature;BME280_humidity;BME280_pressure;Samples;Min_cycle;Max_cycle;Signal;HPM_P1;HPM_P2
2022/12/04 00:00:26;;;;;;;;;;;;;;;17.53;65.90;102356.13;7406451;19;1595;-36
2022/12/04 00:02:56;;;;;;;;;;;;;;;17.52;65.90;102367.78;7406509;19;992;-36
2022/12/04 00:05:27;;;;;;;;;;;;;;;17.46;66.10;102371.66;7403350;19;1857;-36
2022/12/04 00:07:56;;;;;;;;;;;;;;;17.45;65.84;102376.16;7404558;19;1939;-36
2022/12/04 00:10:26;;;;;;;;;;;;;;;17.43;65.72;102379.88;7404716;19;1701;-36
2022/12/04 00:12:54;;;;;;;;;;;;;;;17.39;65.82;102378.28;7405379;19;1715;-36
2022/12/04 00:15:28;;;;;;;;;;;;;;;17.41;65.48;102379.09;7405020;19;1587;-36
2022/12/04 00:17:58;;;;;;;;;;;;;;;17.37;65.42;102380.19;7405654;19;1831;-37
2022/12/04 00:20:29;;;;;;;;;;;;;;;17.38;65.68;102392.63;7404921;19;1002;-36
2022/12/04 00:22:57;;;;;;;;;;;;;;;17.34;65.56;102375.88;7404825;19;1606;-36
2022/12/04 00:25:28;;;;;;;;;;;;;;;17.40;65.10;102391.59;7402300;19;1932;-36
2022/12/04 00:27:57;;;;;;;;;;;;;;;17.40;64.96;102388.91;7404288;19;1732;-36
2022/12/04 00:30:28;;;;;;;;;;;;;;;17.50;65.32;102379.41;7404967;19;1840;-36
2022/12/04 00:32:58;;;;;;;;;;;;;;;18.11;63.72;102381.38;7405127;19;1006;-36
2022/12/04 00:35:30;;;;;;;;;;;;;;;18.69;61.70;102378.72;7404588;19;1857;-36
2022/12/04 00:37:58;;;;;;;;;;;;;;;19.46;59.41;102373.94;7404058;19;1036;-36
2022/12/04 00:40:26;;;;;;;;;;;;;;;19.99;57.89;102373.19;7404835;19;1816;-36
2022/12/04 00:42:59;;;;;;;;;;;;;;;20.20;57.44;102369.06;7404064;19;1914;-36
2022/12/04 00:45:30;;;;;;;;;;;;;;;20.26;57.04;102384.75;7402568;19;2255;-36
2022/12/04 00:48:03;;;;;;;;;;;;;;;20.32;57.02;102370.06;7402355;19;1789;-37
2022/12/04 00:53:17;;;;;;;;;;;;;;;20.02;58.24;102378.38;7399531;19;2090;-36
2022/12/04 00:55:48;;;;;;;;;;;;;;;19.81;58.86;102378.81;7403703;19;1030;-36
2022/12/04 00:58:16;;;;;;;;;;;;;;;19.74;59.12;102390.94;7399811;19;1765;-36
2022/12/04 01:00:46;;;;;;;;;;;;;;;19.02;60.63;102393.72;7394914;19;1489;-36
2022/12/04 01:03:16;;;;;;;;;;;;;;;18.57;61.42;102382.16;7399300;19;1682;-36
2022/12/04 01:05:47;;;;;;;;;;;;;;;18.35;62.09;102395.13;7401695;19;1845;-37
2022/12/04 01:08:18;;;;;;;;;;;;;;;18.18;62.53;102402.31;7404508;19;1014;-36
2022/12/04 01:10:48;;;;;;;;;;;;;;;18.07;62.72;102378.03;7404227;19;1068;-36
2022/12/04 01:13:17;;;;;;;;;;;;;;;18.01;62.44;102381.06;7400794;19;1816;-36
2022/12/04 01:15:53;;;;;;;;;;;;;;;17.94;62.70;102368.97;7403087;19;1336;-36
2022/12/04 01:18:21;;;;;;;;;;;;;;;17.92;62.67;102381.59;7403595;19;1566;-36
2022/12/04 01:20:54;;;;;;;;;;;;;;;17.84;62.88;102382.88;7402567;19;1364;-36
2022/12/04 01:26:12;;;;;;;;;;;;;;;17.76;63.11;102376.22;7401839;19;2171;-36
2022/12/04 01:28:42;;;;;;;;;;;;;;;17.71;62.78;102381.84;7399339;19;1555;-37
2022/12/04 01:31:26;;;;;;;;;;;;;;;17.68;62.81;102390.88;7399203;19;1250;-36
2022/12/04 01:33:59;;;;;;;;;;;;;;;17.67;62.75;102377.63;7401639;19;986;-36
2022/12/04 01:36:30;;;;;;;;;;;;;;;17.61;62.89;102372.63;7402140;19;1626;-37
2022/12/04 01:38:59;;;;;;;;;;;;;;;17.62;63.16;102387.72;7403355;19;1630;-37
2022/12/04 01:41:34;;;;;;;;;;;;;;;17.58;62.69;102370.09;7402661;19;1005;-36
2022/12/04 01:44:11;;;;;;;;;;;;;;;17.59;62.68;102385.22;7400787;19;1856;-36
2022/12/04 01:46:47;;;;;;;;;;;;;;;17.55;63.04;102383.63;7401585;19;1332;-36
2022/12/04 01:49:17;;;;;;;;;;;;;;;17.48;63.01;102384.00;7401648;19;1509;-36
2022/12/04 01:51:51;;;;;;;;;;;;;;;17.45;63.10;102376.16;7401104;19;1840;-36
2022/12/04 01:54:27;;;;;;;;;;;;;;;17.46;62.88;102380.53;7400904;19;1924;-36
2022/12/04 01:56:59;;;;;;;;;;;;;;;17.45;62.76;102373.47;7401679;19;987;-36
2022/12/04 01:59:29;;;;;;;;;;;;;;;17.41;62.90;102376.44;7401616;19;2050;-36
2022/12/04 02:02:00;;;;;;;;;;;;;;;17.37;62.88;102364.16;7399327;19;2075;-36
2022/12/04 02:04:31;;;;;;;;;;;;;;;17.34;62.92;102350.97;7401456;19;1849;-36
2022/12/04 02:07:02;;;;;;;;;;;;;;;17.46;63.58;102377.00;7400249;19;1665;-36
2022/12/04 02:09:31;;;;;;;;;;;;;;;17.39;64.54;102363.13;7401270;19;1817;-36
2022/12/04 02:12:06;;;;;;;;;;;;;;;17.42;63.99;102352.25;7400232;19;1118;-36
2022/12/04 02:14:46;;;;;;;;;;;;;;;17.39;63.88;102355.09;7400964;19;1445;-36
2022/12/04 02:17:19;;;;;;;;;;;;;;;17.38;63.79;102361.38;7401440;19;1966;-36
2022/12/04 02:19:56;;;;;;;;;;;;;;;17.34;63.72;102359.84;7401173;19;1816;-36
2022/12/04 02:22:31;;;;;;;;;;;;;;;17.36;63.81;102357.94;7401150;19;1559;-35
2022/12/04 02:25:15;;;;;;;;;;;;;;;17.33;63.78;102352.78;7400878;19;1928;-36
2022/12/04 02:27:57;;;;;;;;;;;;;;;17.29;63.59;102362.78;7401342;19;1941;-36
2022/12/04 02:30:27;;;;;;;;;;;;;;;17.37;63.70;102370.38;7400217;19;1646;-37
2022/12/04 02:33:02;;;;;;;;;;;;;;;18.02;61.84;102358.69;7401469;19;1037;-36
2022/12/04 02:35:33;;;;;;;;;;;;;;;18.72;60.25;102355.38;7400811;19;2036;-36
2022/12/04 02:38:05;;;;;;;;;;;;;;;19.41;58.24;102359.09;7396958;19;1881;-37
2022/12/04 02:40:40;;;;;;;;;;;;;;;19.81;57.36;102362.72;7400222;19;1930;-36
2022/12/04 02:43:35;;;;;;;;;;;;;;;19.98;56.87;102358.06;7404019;19;1740;-37
2022/12/04 02:48:51;;;;;;;;;;;;;;;20.11;56.78;102340.13;7401905;19;1697;-36
2022/12/04 02:51:21;;;;;;;;;;;;;;;20.06;56.78;102350.34;7405794;19;1246;-36
2022/12/04 02:53:51;;;;;;;;;;;;;;;19.74;57.78;102361.41;7407923;19;1202;-36
2022/12/04 02:56:24;;;;;;;;;;;;;;;19.63;58.13;102350.50;7405636;19;1040;-36
2022/12/04 02:58:56;;;;;;;;;;;;;;;19.24;59.08;102357.50;7406588;19;1841;-36
2022/12/04 03:01:28;;;;;;;;;;;;;;;18.63;60.52;102363.03;7401758;19;1798;-69
2022/12/04 03:03:59;;;;;;;;;;;;;;;18.27;61.31;102356.28;7411302;19;1414;-68
2022/12/04 03:06:30;;;;;;;;;;;;;;;18.12;61.55;102373.25;7408874;19;1866;-66
2022/12/04 03:09:02;;;;;;;;;;;;;;;17.98;61.56;102339.25;7410270;19;1437;-69
2022/12/04 03:11:32;;;;;;;;;;;;;;;17.92;61.65;102365.53;7412465;19;999;-69
2022/12/04 03:14:08;;;;;;;;;;;;;;;17.85;61.74;102379.25;7406876;19;1769;-65
2022/12/04 03:16:41;;;;;;;;;;;;;;;17.79;61.89;102365.34;7407946;19;1886;-65
2022/12/04 03:19:11;;;;;;;;;;;;;;;17.72;62.00;102364.81;7410648;19;1702;-65
2022/12/04 03:21:41;;;;;;;;;;;;;;;17.69;61.93;102359.66;7408202;19;1651;-69
2022/12/04 03:24:14;;;;;;;;;;;;;;;17.62;61.93;102355.59;7409306;19;1364;-69
2022/12/04 03:26:45;;;;;;;;;;;;;;;17.57;62.15;102353.22;7406916;19;1840;-65
2022/12/04 03:29:18;;;;;;;;;;;;;;;17.58;62.20;102352.25;7410290;19;1383;-69
2022/12/04 03:31:50;;;;;;;;;;;;;;;17.52;61.91;102349.06;7409666;19;1654;-69
2022/12/04 03:34:24;;;;;;;;;;;;;;;17.50;62.10;102341.97;7409989;19;1533;-65
2022/12/04 03:36:55;;;;;;;;;;;;;;;17.46;62.00;102332.41;7409890;19;1323;-67
2022/12/04 03:39:27;;;;;;;;;;;;;;;17.47;62.08;102350.19;7410599;19;1622;-68
2022/12/04 03:41:59;;;;;;;;;;;;;;;17.39;61.82;102346.19;7410447;19;980;-67
2022/12/04 03:44:34;;;;;;;;;;;;;;;17.40;61.83;102343.44;7409132;19;1501;-71
2022/12/04 03:47:06;;;;;;;;;;;;;;;17.38;62.10;102340.00;7408586;19;1911;-68
2022/12/04 03:49:38;;;;;;;;;;;;;;;17.37;61.75;102338.28;7409575;19;1374;-71
2022/12/04 03:52:11;;;;;;;;;;;;;;;17.39;61.38;102344.41;7409470;19;1512;-67
2022/12/04 03:54:42;;;;;;;;;;;;;;;17.44;61.47;102362.88;7407965;19;1509;-71
2022/12/04 03:57:14;;;;;;;;;;;;;;;17.37;61.68;102348.09;7409800;19;992;-71
2022/12/04 03:59:49;;;;;;;;;;;;;;;17.36;61.53;102351.75;7409356;19;1675;-68
2022/12/04 04:02:19;;;;;;;;;;;;;;;17.92;60.56;102342.28;7407925;19;1671;-72
2022/12/04 04:04:50;;;;;;;;;;;;;;;18.37;60.02;102335.16;7408967;19;1853;-67
2022/12/04 04:07:22;;;;;;;;;;;;;;;19.02;58.77;102325.81;7409473;19;1627;-71
2022/12/04 04:09:53;;;;;;;;;;;;;;;19.34;58.19;102341.66;7408766;19;1577;-71
2022/12/04 04:12:23;;;;;;;;;;;;;;;19.61;57.79;102339.00;7409658;19;967;-71
2022/12/04 04:25:54;;;;;;;;;;;;;;;19.50;58.63;102323.63;7408852;19;1846;-71
2022/12/04 04:28:32;;;;;;;;;;;;;;;19.21;60.13;102347.81;7405909;19;1626;-71
2022/12/04 04:31:07;;;;;;;;;;;;;;;18.55;61.58;102343.88;7406884;19;1619;-68
2022/12/04 04:33:37;;;;;;;;;;;;;;;18.07;62.61;102344.06;7408641;19;1655;-68
2022/12/04 04:36:09;;;;;;;;;;;;;;;17.87;63.64;102347.94;7409427;19;1603;-72
2022/12/04 04:38:41;;;;;;;;;;;;;;;17.69;63.92;102347.16;7409277;19;1047;-68
2022/12/04 04:41:12;;;;;;;;;;;;;;;17.60;64.29;102344.13;7408638;19;1805;-68
2022/12/04 04:43:44;;;;;;;;;;;;;;;17.54;64.46;102353.38;7406243;19;1509;-68
2022/12/04 04:46:18;;;;;;;;;;;;;;;17.48;64.83;102346.53;7405603;19;1861;-68
2022/12/04 04:48:49;;;;;;;;;;;;;;;17.43;64.86;102350.47;7408707;19;1614;-68
2022/12/04 04:51:18;;;;;;;;;;;;;;;17.42;65.10;102354.06;7407032;19;1565;-71
2022/12/04 04:53:51;;;;;;;;;;;;;;;17.32;65.19;102345.69;7406093;19;1382;-71
2022/12/04 04:56:19;;;;;;;;;;;;;;;17.29;65.29;102340.53;7408212;19;994;-71
2022/12/04 04:58:48;;;;;;;;;;;;;;;17.27;65.56;102337.09;7405828;19;1493;-68
2022/12/04 05:01:20;;;;;;;;;;;;;;;17.24;65.73;102348.78;7404080;19;1666;-71
2022/12/04 05:03:48;;;;;;;;;;;;;;;17.23;65.80;102340.84;7404072;19;1632;-67
2022/12/04 05:06:17;;;;;;;;;;;;;;;17.19;65.82;102350.00;7403105;19;1844;-71
2022/12/04 05:08:48;;;;;;;;;;;;;;;17.18;65.75;102342.94;7407103;19;1260;-72
2022/12/04 05:11:17;;;;;;;;;;;;;;;17.14;66.00;102346.72;7403180;19;1508;-72
2022/12/04 05:13:45;;;;;;;;;;;;;;;17.12;66.15;102348.63;7404906;19;1451;-71
2022/12/04 05:16:14;;;;;;;;;;;;;;;17.07;66.20;102330.19;7405648;19;1620;-71
2022/12/04 05:19:52;;;;;;;;;;;;;;;17.04;66.71;102335.69;7407449;19;1528;-72
2022/12/04 05:21:32;;;;;;;;;;;;;;;17.48;65.12;102337.66;7403773;19;1383;-68
2022/12/04 05:24:00;;;;;;;;;;;;;;;18.03;63.64;102342.53;7407107;19;1556;-72
2022/12/04 05:26:29;;;;;;;;;;;;;;;18.64;62.05;102343.34;7406249;19;1860;-68
2022/12/04 05:28:57;;;;;;;;;;;;;;;19.18;60.56;102347.16;7402757;19;1696;-72
2022/12/04 05:31:25;;;;;;;;;;;;;;;19.34;60.56;102357.75;7405277;19;1363;-71
2022/12/04 05:33:56;;;;;;;;;;;;;;;19.59;59.65;102357.03;7404577;19;1552;-71
2022/12/04 05:36:24;;;;;;;;;;;;;;;19.73;59.47;102343.56;7405956;19;1451;-68
2022/12/04 05:38:53;;;;;;;;;;;;;;;19.79;59.36;102363.78;7405248;19;1331;-72
2022/12/04 05:41:21;;;;;;;;;;;;;;;19.76;59.32;102338.03;7407350;19;1004;-68
2022/12/04 05:43:49;;;;;;;;;;;;;;;19.52;59.80;102363.75;7401404;19;1754;-68
2022/12/04 05:46:18;;;;;;;;;;;;;;;19.35;60.34;102364.84;7402236;19;1826;-67
2022/12/04 05:48:46;;;;;;;;;;;;;;;18.99;61.65;102352.84;7406008;19;1640;-68
2022/12/04 05:51:17;;;;;;;;;;;;;;;18.43;62.99;102377.63;7405325;19;1372;-68
2022/12/04 05:53:45;;;;;;;;;;;;;;;18.01;64.17;102370.34;7404835;19;1549;-71
2022/12/04 05:56:13;;;;;;;;;;;;;;;17.79;64.93;102379.59;7406822;19;954;-71
2022/12/04 05:58:42;;;;;;;;;;;;;;;17.65;65.11;102390.22;7403529;19;1778;-68
2022/12/04 06:01:11;;;;;;;;;;;;;;;17.55;65.44;102378.28;7402512;19;1544;-71
2022/12/04 06:03:40;;;;;;;;;;;;;;;17.48;65.56;102385.81;7405135;19;1615;-71
2022/12/04 06:06:12;;;;;;;;;;;;;;;17.41;65.81;102385.31;7403968;19;1868;-68
2022/12/04 06:08:43;;;;;;;;;;;;;;;17.35;65.91;102384.75;7404925;19;1512;-71
2022/12/04 06:11:13;;;;;;;;;;;;;;;17.34;65.86;102391.94;7406313;19;945;-66
2022/12/04 06:13:42;;;;;;;;;;;;;;;17.33;66.90;102390.22;7402880;19;1682;-70
2022/12/04 06:16:13;;;;;;;;;;;;;;;17.79;66.00;102378.75;7402173;19;1517;-69
2022/12/04 06:18:42;;;;;;;;;;;;;;;18.38;64.19;102394.94;7403373;19;1371;-70
2022/12/04 06:21:10;;;;;;;;;;;;;;;19.12;62.84;102404.75;7401328;19;1427;-70
2022/12/04 06:23:38;;;;;;;;;;;;;;;19.75;60.99;102395.34;7400148;19;1434;-70
2022/12/04 06:26:10;;;;;;;;;;;;;;;20.19;59.74;102378.09;7405670;19;1852;-69
2022/12/04 06:28:38;;;;;;;;;;;;;;;20.30;59.21;102389.94;7400720;19;1454;-69
2022/12/04 06:31:07;;;;;;;;;;;;;;;20.46;58.37;102382.53;7403216;19;1490;-69
2022/12/04 06:33:36;;;;;;;;;;;;;;;20.56;58.52;102391.69;7404483;19;1549;-69
2022/12/04 06:36:06;;;;;;;;;;;;;;;20.48;58.94;102407.47;7404838;19;1024;-68
2022/12/04 06:38:34;;;;;;;;;;;;;;;20.42;59.45;102410.59;7405955;19;1026;-71
2022/12/04 06:41:05;;;;;;;;;;;;;;;20.36;59.52;102390.38;7404047;19;1577;-69
2022/12/04 06:43:36;;;;;;;;;;;;;;;20.39;59.51;102400.94;7403169;19;1598;-70
2022/12/04 06:46:05;;;;;;;;;;;;;;;20.42;59.75;102418.66;7403298;19;1863;-71
2022/12/04 06:48:34;;;;;;;;;;;;;;;20.34;60.15;102403.06;7401773;19;1186;-67
2022/12/04 06:51:03;;;;;;;;;;;;;;;20.45;59.72;102416.63;7402999;19;1196;-70
2022/12/04 06:53:32;;;;;;;;;;;;;;;20.26;60.17;102406.25;7404582;19;1326;-70
2022/12/04 06:56:01;;;;;;;;;;;;;;;20.15;60.23;102403.41;7403603;19;1253;-65
2022/12/04 06:58:29;;;;;;;;;;;;;;;20.10;60.42;102386.78;7403953;19;1366;-66
2022/12/04 07:01:00;;;;;;;;;;;;;;;20.11;60.62;102406.44;7402675;19;1335;-69
2022/12/04 07:03:28;;;;;;;;;;;;;;;20.13;61.72;102426.00;7401426;19;1337;-70
2022/12/04 07:05:57;;;;;;;;;;;;;;;20.20;61.68;102409.38;7397360;19;1878;-70
2022/12/04 07:08:26;;;;;;;;;;;;;;;20.23;61.20;102416.34;7303880;19;12939;-73
2022/12/04 07:10:54;;;;;;;;;;;;;;;20.25;61.79;102425.16;7402562;19;1063;-71
2022/12/04 07:13:22;;;;;;;;;;;;;;;20.21;61.34;102413.78;7400448;19;1630;-69
2022/12/04 07:15:51;;;;;;;;;;;;;;;20.21;61.96;102416.47;7381782;19;3280;-36
2022/12/04 07:18:22;;;;;;;;;;;;;;;20.12;62.28;102430.50;7398676;19;1578;-36
2022/12/04 07:20:50;;;;;;;;;;;;;;;20.26;61.77;102443.88;7398079;19;1677;-36
2022/12/04 07:23:18;;;;;;;;;;;;;;;20.26;62.02;102413.47;7399753;19;957;-36
2022/12/04 07:25:46;;;;;;;;;;;;;;;20.41;61.81;102424.97;7398819;19;1861;-36
2022/12/04 07:28:15;;;;;;;;;;;;;;;20.32;61.74;102422.94;7399066;19;1548;-36
2022/12/04 07:30:43;;;;;;;;;;;;;;;20.47;61.17;102424.56;7404846;19;1824;-36
2022/12/04 07:33:11;;;;;;;;;;;;;;;20.44;61.45;102411.34;7406552;19;1925;-36
2022/12/04 07:35:42;;;;;;;;;;;;;;;20.39;61.54;102440.34;7403650;19;1931;-37
2022/12/04 07:38:10;;;;;;;;;;;;;;;20.49;61.48;102429.84;7404804;19;1309;-36
2022/12/04 07:40:40;;;;;;;;;;;;;;;20.50;61.46;102421.69;7403300;19;1757;-36
2022/12/04 07:43:08;;;;;;;;;;;;;;;20.35;61.36;102403.91;7404060;19;1436;-36
2022/12/04 07:45:42;;;;;;;;;;;;;;;20.45;60.64;102429.19;7405051;19;1743;-36
2022/12/04 07:48:13;;;;;;;;;;;;;;;20.46;61.04;102436.28;7403591;19;1960;-37
2022/12/04 07:59:49;;;;;;;;;;;;;;;20.55;59.46;102437.47;7398679;19;1654;-36
2022/12/04 08:02:21;;;;;;;;;;;;;;;20.62;59.63;102442.38;7309093;19;12916;-36
2022/12/04 08:04:49;;;;;;;;;;;;;;;20.60;60.38;102441.59;7398896;19;1738;-36
2022/12/04 08:07:17;;;;;;;;;;;;;;;20.60;59.71;102435.38;7398776;19;1857;-37
2022/12/04 08:09:47;;;;;;;;;;;;;;;20.59;59.80;102436.31;7397700;19;1509;-36
2022/12/04 08:12:15;;;;;;;;;;;;;;;20.55;60.68;102432.97;7394048;19;1580;-37
2022/12/04 08:14:45;;;;;;;;;;;;;;;20.56;60.49;102444.59;7396873;19;1460;-37
2022/12/04 08:17:14;;;;;;;;;;;;;;;20.64;60.28;102440.44;7398112;19;2649;-36
2022/12/04 08:19:47;;;;;;;;;;;;;;;20.59;60.34;102434.53;7400447;19;1647;-36
2022/12/04 08:22:15;;;;;;;;;;;;;;;20.53;60.85;102440.28;7401145;19;1643;-37
2022/12/04 08:24:45;;;;;;;;;;;;;;;20.51;61.02;102425.22;7403159;19;1633;-37
2022/12/04 08:27:16;;;;;;;;;;;;;;;20.60;61.37;102430.84;7402612;19;1858;-36
2022/12/04 08:29:44;;;;;;;;;;;;;;;20.55;61.66;102424.91;7402970;19;1771;-36
2022/12/04 08:32:12;;;;;;;;;;;;;;;20.55;61.90;102432.09;7402813;19;1911;-36
2022/12/04 08:34:41;;;;;;;;;;;;;;;20.61;61.83;102420.97;7403578;19;1628;-36
2022/12/04 08:37:12;;;;;;;;;;;;;;;20.43;61.78;102426.63;7403213;19;1431;-36
2022/12/04 08:39:40;;;;;;;;;;;;;;;20.37;62.35;102418.97;7400737;19;1831;-36
2022/12/04 08:42:08;;;;;;;;;;;;;;;20.25;62.45;102435.91;7402716;19;1333;-36
2022/12/04 08:44:36;;;;;;;;;;;;;;;20.08;62.45;102418.25;7397693;19;1506;-38
2022/12/04 08:47:05;;;;;;;;;;;;;;;20.20;63.04;102416.56;7380871;19;1857;-37
2022/12/04 08:49:33;;;;;;;;;;;;;;;19.89;63.97;102417.75;7377170;19;1808;-37
2022/12/04 08:52:01;;;;;;;;;;;;;;;19.77;65.11;102414.88;7377975;19;1764;-36
2022/12/04 08:54:32;;;;;;;;;;;;;;;19.89;65.40;102401.63;7400482;19;1459;-37
2022/12/04 08:57:00;;;;;;;;;;;;;;;19.99;65.23;102402.75;7399758;19;1293;-35
2022/12/04 08:59:28;;;;;;;;;;;;;;;19.89;66.16;102389.06;7401067;19;1624;-37
2022/12/04 09:01:57;;;;;;;;;;;;;;;19.79;66.28;102406.75;7399127;19;1687;-37
2022/12/04 09:04:25;;;;;;;;;;;;;;;19.82;65.96;102403.88;7400761;19;1497;-37
2022/12/04 09:06:53;;;;;;;;;;;;;;;20.05;65.51;102413.06;7401140;19;1869;-37
2022/12/04 09:09:22;;;;;;;;;;;;;;;19.82;65.44;102407.41;7400591;19;2023;-36
2022/12/04 09:11:53;;;;;;;;;;;;;;;20.03;65.60;102396.19;7399114;19;1713;-36
2022/12/04 09:14:29;;;;;;;;;;;;;;;19.95;66.15;102385.13;7401281;19;2002;-36
2022/12/04 09:16:58;;;;;;;;;;;;;;;20.15;65.89;102386.44;7386117;19;2229;-36
2022/12/04 09:19:34;;;;;;;;;;;;;;;20.19;65.12;102375.41;7397213;19;1703;-37
2022/12/04 09:22:08;;;;;;;;;;;;;;;20.12;65.12;102390.22;7386439;19;2202;-37
2022/12/04 09:24:42;;;;;;;;;;;;;;;19.93;64.83;102381.66;7388403;19;1812;-36
2022/12/04 09:27:13;;;;;;;;;;;;;;;19.84;63.86;102381.31;7400453;19;1850;-36
2022/12/04 09:29:47;;;;;;;;;;;;;;;19.88;63.52;102367.72;7399530;19;1716;-36
2022/12/04 09:32:16;;;;;;;;;;;;;;;20.00;63.40;102381.16;7399418;19;1780;-36
2022/12/04 09:34:48;;;;;;;;;;;;;;;20.05;63.57;102370.97;7398538;19;1963;-36
2022/12/04 09:37:19;;;;;;;;;;;;;;;20.16;63.59;102358.66;7402413;19;1914;-36
2022/12/04 09:39:47;;;;;;;;;;;;;;;20.19;64.27;102355.72;7398984;19;1686;-38
2022/12/04 09:42:36;;;;;;;;;;;;;;;20.12;64.48;102351.78;7400760;19;983;-37
2022/12/04 09:45:10;;;;;;;;;;;;;;;20.06;64.78;102327.03;7401370;19;1520;-37
2022/12/04 09:47:42;;;;;;;;;;;;;;;20.15;64.82;102338.97;7400187;19;1902;-36
2022/12/04 09:50:16;;;;;;;;;;;;;;;20.17;64.77;102336.19;7400535;19;2058;-37
2022/12/04 09:52:48;;;;;;;;;;;;;;;20.16;65.11;102324.59;7398786;19;1660;-36
2022/12/04 09:55:19;;;;;;;;;;;;;;;20.12;65.21;102332.97;7400261;19;1949;-35
2022/12/04 09:57:52;;;;;;;;;;;;;;;20.11;64.99;102324.03;7401107;19;1664;-36
2022/12/04 10:00:21;;;;;;;;;;;;;;;20.17;65.11;102302.13;7400900;19;1902;-35
2022/12/04 10:02:52;;;;;;;;;;;;;;;20.15;65.23;102311.25;7400067;19;1465;-36
2022/12/04 10:05:28;;;;;;;;;;;;;;;20.16;65.29;102303.09;7401602;19;1713;-36
2022/12/04 10:08:04;;;;;;;;;;;;;;;20.34;64.63;102297.41;7400058;19;1995;-36
2022/12/04 10:10:38;;;;;;;;;;;;;;;20.46;64.53;102299.25;7400218;19;1696;-36
2022/12/04 10:13:14;;;;;;;;;;;;;;;20.31;64.75;102290.41;7399949;19;1326;-36
2022/12/04 10:15:46;;;;;;;;;;;;;;;20.36;64.53;102292.81;7397364;19;1452;-37
2022/12/04 10:18:22;;;;;;;;;;;;;;;20.34;64.29;102284.00;7398394;19;1330;-36
2022/12/04 10:21:03;;;;;;;;;;;;;;;20.41;63.84;102296.00;7396070;19;1734;-37
2022/12/04 10:23:40;;;;;;;;;;;;;;;20.36;64.28;102292.81;7398652;19;1506;-36
2022/12/04 10:26:14;;;;;;;;;;;;;;;20.43;63.96;102283.31;7397125;19;1307;-36
2022/12/04 10:28:49;;;;;;;;;;;;;;;20.42;64.17;102295.06;7397149;19;1865;-36
2022/12/04 10:31:17;;;;;;;;;;;;;;;20.34;64.37;102286.69;7395967;19;1575;-36
2022/12/04 10:33:47;;;;;;;;;;;;;;;20.44;63.76;102290.44;7392996;19;1556;-37
2022/12/04 10:36:19;;;;;;;;;;;;;;;20.50;63.40;102297.22;7394111;19;1412;-36
2022/12/04 10:38:51;;;;;;;;;;;;;;;20.52;63.61;102304.19;7393851;19;1430;-37
2022/12/04 10:41:28;;;;;;;;;;;;;;;20.61;63.49;102305.38;7394453;19;1468;-37
2022/12/04 10:43:59;;;;;;;;;;;;;;;20.61;63.72;102287.44;7392689;19;1598;-37
2022/12/04 10:46:29;;;;;;;;;;;;;;;20.60;63.84;102280.34;7396014;19;1801;-36
2022/12/04 10:48:59;;;;;;;;;;;;;;;20.56;64.16;102276.13;7394060;19;1890;-36
2022/12/04 10:51:28;;;;;;;;;;;;;;;20.56;64.33;102292.25;7396850;19;1562;-36
2022/12/04 10:53:57;;;;;;;;;;;;;;;19.89;66.18;102288.88;7395151;19;1547;-36
2022/12/04 10:56:26;;;;;;;;;;;;;;;19.39;67.68;102299.31;7395651;19;1838;-36
2022/12/04 10:59:01;;;;;;;;;;;;;;;19.14;68.33;102276.78;7396379;19;1492;-36
2022/12/04 11:01:30;;;;;;;;;;;;;;;19.04;68.61;102279.19;7395551;19;1536;-36
2022/12/04 11:04:01;;;;;;;;;;;;;;;18.93;68.21;102268.28;7400679;19;1717;-36
2022/12/04 11:06:30;;;;;;;;;;;;;;;18.90;67.85;102272.97;7404410;19;1556;-36
2022/12/04 11:08:59;;;;;;;;;;;;;;;18.79;68.01;102273.66;7401767;19;1847;-36
2022/12/04 11:11:29;;;;;;;;;;;;;;;18.66;67.48;102266.38;7406752;19;1905;-36
2022/12/04 11:14:07;;;;;;;;;;;;;;;18.62;68.13;102269.34;7405997;19;1849;-38
2022/12/04 11:16:38;;;;;;;;;;;;;;;18.63;68.27;102260.34;7403123;19;1713;-35
2022/12/04 11:19:20;;;;;;;;;;;;;;;18.47;58.72;102247.06;7404003;19;1788;-35
2022/12/04 11:21:48;;;;;;;;;;;;;;;19.00;66.20;102258.91;7403964;19;1722;-36
2022/12/04 11:24:21;;;;;;;;;;;;;;;19.57;65.21;102256.97;7405940;19;1920;-36
2022/12/04 11:26:49;;;;;;;;;;;;;;;20.21;63.34;102247.25;7405786;19;1781;-35
2022/12/04 11:29:22;;;;;;;;;;;;;;;20.08;63.99;102245.53;7401968;19;1841;-36
2022/12/04 11:31:50;;;;;;;;;;;;;;;20.24;63.45;102235.41;7404727;19;1740;-35
2022/12/04 11:34:21;;;;;;;;;;;;;;;20.31;63.53;102250.13;6376702;19;10000827;-36
2022/12/04 11:36:53;;;;;;;;;;;;;;;20.28;63.53;102242.28;7393018;19;1747;-36
2022/12/04 11:39:25;;;;;;;;;;;;;;;20.40;63.58;102236.03;7397513;19;1518;-36
2022/12/04 11:42:01;;;;;;;;;;;;;;;20.61;62.72;102227.44;7399024;19;1435;-36
2022/12/04 11:44:32;;;;;;;;;;;;;;;20.63;62.49;102236.25;7399961;19;2030;-36
2022/12/04 11:47:03;;;;;;;;;;;;;;;20.61;62.32;102222.94;7400591;19;1749;-36
2022/12/04 11:49:32;;;;;;;;;;;;;;;19.81;64.64;102228.50;7401045;19;1840;-36
2022/12/04 11:52:11;;;;;;;;;;;;;;;19.32;66.42;102220.19;7401707;19;1622;-37
2022/12/04 11:54:43;;;;;;;;;;;;;;;19.00;67.41;102221.38;7402896;19;1677;-36
2022/12/04 11:57:17;;;;;;;;;;;;;;;18.83;67.71;102230.50;7404785;19;1841;-36
2022/12/04 11:59:58;;;;;;;;;;;;;;;18.66;68.17;102210.13;7398462;19;2019;-37
2022/12/04 12:02:34;;;;;;;;;;;;;;;18.62;68.45;102194.31;7402288;19;1751;-36
2022/12/04 12:05:17;;;;;;;;;;;;;;;18.74;68.22;102206.06;7400231;19;1757;-36
2022/12/04 12:07:50;;;;;;;;;;;;;;;18.73;69.16;102215.09;7400572;19;1857;-36
2022/12/04 12:10:22;;;;;;;;;;;;;;;18.68;68.89;102210.00;7400184;19;1654;-36
2022/12/04 12:13:18;;;;;;;;;;;;;;;18.62;69.02;102189.84;7403243;19;1615;-36
2022/12/04 12:15:55;;;;;;;;;;;;;;;18.56;68.88;102200.94;7400183;19;1524;-36
2022/12/04 12:18:34;;;;;;;;;;;;;;;18.56;69.23;102206.31;7402905;19;1930;-36
2022/12/04 12:21:08;;;;;;;;;;;;;;;18.88;67.54;102212.31;7400769;19;1819;-36
2022/12/04 12:23:44;;;;;;;;;;;;;;;19.89;64.69;102208.34;7402040;19;1683;-36
2022/12/04 12:26:13;;;;;;;;;;;;;;;20.51;62.76;102178.81;7402669;19;1601;-36
2022/12/04 12:28:50;;;;;;;;;;;;;;;20.79;61.64;102193.88;7399137;19;1877;-36
2022/12/04 12:31:34;;;;;;;;;;;;;;;20.91;59.03;102186.72;7402500;19;1781;-38
2022/12/04 12:34:06;;;;;;;;;;;;;;;20.95;59.90;102190.91;7401648;19;1796;-36
2022/12/04 12:36:37;;;;;;;;;;;;;;;21.09;59.65;102192.56;7402608;19;1748;-36
2022/12/04 12:39:11;;;;;;;;;;;;;;;21.26;59.32;102185.91;7402951;19;1700;-36
2022/12/04 12:41:42;;;;;;;;;;;;;;;21.23;59.32;102183.47;7404564;19;1026;-35
2022/12/04 12:44:16;;;;;;;;;;;;;;;21.01;59.85;102187.75;7402529;19;1916;-36
2022/12/04 12:46:50;;;;;;;;;;;;;;;20.89;60.10;102188.66;7403361;19;1571;-36
2022/12/04 12:49:23;;;;;;;;;;;;;;;20.49;61.41;102202.28;7400212;19;1874;-36
2022/12/04 12:51:54;;;;;;;;;;;;;;;19.88;63.24;102190.53;7400207;19;1818;-36
2022/12/04 12:54:29;;;;;;;;;;;;;;;19.44;64.50;102192.56;7401311;19;1746;-37
2022/12/04 12:57:02;;;;;;;;;;;;;;;19.15;64.69;102198.03;7395924;19;1719;-37
2022/12/04 12:59:31;;;;;;;;;;;;;;;18.99;65.03;102203.56;7401894;19;1945;-36
2022/12/04 13:02:04;;;;;;;;;;;;;;;18.80;64.12;102187.81;7397666;19;1826;-38
2022/12/04 13:04:36;;;;;;;;;;;;;;;18.82;64.94;102201.09;7396048;19;1679;-36
2022/12/04 13:07:11;;;;;;;;;;;;;;;18.77;64.24;102208.56;7400208;19;1818;-36
2022/12/04 13:09:43;;;;;;;;;;;;;;;18.80;64.92;102203.91;7400089;19;1852;-36
2022/12/04 13:12:14;;;;;;;;;;;;;;;18.77;65.61;102196.03;7401731;19;1623;-36
2022/12/04 13:14:44;;;;;;;;;;;;;;;18.80;65.83;102208.38;7402762;19;1653;-36
2022/12/04 13:17:18;;;;;;;;;;;;;;;18.74;65.97;102223.03;7402099;19;2020;-36
2022/12/04 13:19:52;;;;;;;;;;;;;;;18.74;66.53;102209.63;7401968;19;1837;-36
2022/12/04 13:22:28;;;;;;;;;;;;;;;18.71;66.99;102215.19;7398949;19;1676;-36
2022/12/04 13:25:14;;;;;;;;;;;;;;;18.67;67.51;102208.28;7402395;19;1756;-36
2022/12/04 13:27:47;;;;;;;;;;;;;;;18.79;67.17;102223.59;7399854;19;1644;-38
2022/12/04 13:30:19;;;;;;;;;;;;;;;18.74;67.00;102211.44;7401647;19;1648;-36
2022/12/04 13:33:02;;;;;;;;;;;;;;;19.65;64.43;102223.28;7401441;19;1886;-36
2022/12/04 13:35:39;;;;;;;;;;;;;;;20.37;61.76;102224.66;7400900;19;1903;-36
2022/12/04 13:38:16;;;;;;;;;;;;;;;20.84;60.39;102207.81;7400491;19;1835;-37